createdAt,value
2019-01-25T00:00:00.790Z,7.00
2019-01-25T00:05:06.435Z,7.50
2019-01-25T00:10:10.649Z,9.00
2019-01-25T00:15:15.418Z,6.60
2019-01-25T00:20:19.627Z,7.20
2019-01-25T00:25:23.852Z,7.00
2019-01-25T00:30:28.128Z,7.00
2019-01-25T00:35:32.178Z,7.60
2019-01-25T00:40:36.392Z,6.00
2019-01-25T00:45:40.533Z,6.50
2019-01-25T00:50:44.646Z,7.00
2019-01-25T00:55:48.934Z,7.00
2019-01-25T01:00:53.187Z,7.20
2019-01-25T01:05:57.432Z,6.00
2019-01-25T01:11:01.695Z,6.00
2019-01-25T01:16:05.913Z,7.25
2019-01-25T01:21:10.105Z,6.20
2019-01-25T01:26:14.313Z,6.00
2019-01-25T01:31:18.600Z,6.75
2019-01-25T01:36:22.718Z,7.00
2019-01-25T01:41:26.983Z,5.40
2019-01-25T01:46:31.202Z,7.25
2019-01-25T01:51:35.349Z,5.25
2019-01-25T01:56:39.504Z,6.40
2019-01-25T02:01:43.863Z,6.00
2019-01-25T02:06:48.045Z,8.00
2019-01-25T02:11:52.377Z,6.20
2019-01-25T02:16:56.678Z,6.50
2019-01-25T02:22:01.054Z,6.50
2019-01-25T02:27:05.310Z,7.00
2019-01-25T02:32:09.619Z,6.00
2019-01-25T02:37:13.819Z,6.00
2019-01-25T02:42:18.223Z,6.25
2019-01-25T02:47:22.382Z,6.00
2019-01-25T02:52:26.593Z,6.80
2019-01-25T02:57:30.817Z,6.00
2019-01-25T03:02:34.933Z,5.40
2019-01-25T03:07:39.143Z,5.75
2019-01-25T03:12:43.632Z,6.00
2019-01-25T03:17:48.096Z,6.20
2019-01-25T03:22:52.439Z,5.00
2019-01-25T03:27:56.835Z,5.75
2019-01-25T03:33:01.031Z,5.25
2019-01-25T03:38:05.714Z,5.00
2019-01-25T03:43:10.148Z,5.00
2019-01-25T03:48:14.466Z,5.60
2019-01-25T03:53:18.757Z,5.00
2019-01-25T03:58:23.039Z,4.50
2019-01-25T04:03:27.381Z,5.75
2019-01-25T04:08:31.581Z,5.00
2019-01-25T04:13:35.778Z,5.00
2019-01-25T04:18:40.104Z,7.25
2019-01-25T04:23:44.339Z,5.75
2019-01-25T04:28:48.455Z,5.80
2019-01-25T04:33:52.876Z,5.00
2019-01-25T04:38:57.065Z,6.25
2019-01-25T04:44:01.328Z,4.00
2019-01-25T04:49:05.600Z,6.00
2019-01-25T04:54:09.928Z,4.00
2019-01-25T04:59:14.242Z,5.00
2019-01-25T05:04:18.543Z,5.00
2019-01-25T05:09:22.732Z,6.60
2019-01-25T05:14:31.077Z,5.00
2019-01-25T05:19:41.647Z,5.60
2019-01-25T05:24:45.805Z,6.00
2019-01-25T05:29:52.470Z,5.25
2019-01-25T05:34:56.586Z,5.75
2019-01-25T05:40:00.699Z,5.00
2019-01-25T05:45:10.443Z,5.75
2019-01-25T05:50:14.797Z,5.50
2019-01-25T05:55:20.392Z,6.40
2019-01-25T06:00:28.686Z,5.40
2019-01-25T06:05:32.928Z,5.25
2019-01-25T06:10:37.107Z,6.00
2019-01-25T06:15:41.209Z,6.00
2019-01-25T06:20:50.000Z,5.25
2019-01-25T06:25:55.596Z,4.33
2019-01-25T06:30:59.778Z,6.00
2019-01-25T06:36:04.435Z,6.00
2019-01-25T06:41:09.111Z,6.00
2019-01-25T06:46:13.310Z,6.80
2019-01-25T06:51:17.405Z,4.00
2019-01-25T06:56:21.522Z,5.40
2019-01-25T07:01:43.599Z,5.25
2019-01-25T07:06:47.787Z,5.25
2019-01-25T07:11:52.073Z,6.00
2019-01-25T07:16:56.262Z,5.40
2019-01-25T07:22:00.289Z,7.00
2019-01-25T07:27:04.422Z,4.20
2019-01-25T07:32:08.609Z,4.75
2019-01-25T07:37:12.786Z,5.00
2019-01-25T07:42:17.270Z,5.80
2019-01-25T07:47:21.409Z,6.50
2019-01-25T07:52:25.868Z,5.00
2019-01-25T07:57:29.874Z,6.50
2019-01-25T08:02:33.903Z,5.00
2019-01-25T08:07:38.163Z,4.25
2019-01-25T08:12:42.392Z,5.00
2019-01-25T08:17:46.604Z,6.00
2019-01-25T08:22:50.993Z,5.00
2019-01-25T08:27:55.169Z,5.40
2019-01-25T08:32:59.381Z,28.25
2019-01-25T08:38:03.608Z,32.20
2019-01-25T08:43:08.983Z,30.60
2019-01-25T08:48:13.242Z,28.20
2019-01-25T08:53:18.917Z,28.20
2019-01-25T08:58:23.137Z,26.50
2019-01-25T09:03:27.285Z,26.00
2019-01-25T09:08:31.421Z,22.25
2019-01-25T09:13:35.551Z,22.00
2019-01-25T09:18:39.691Z,23.80
2019-01-25T09:23:43.856Z,24.75
2019-01-25T09:28:47.963Z,22.25
2019-01-25T09:33:52.191Z,23.80
2019-01-25T09:38:56.267Z,22.20
2019-01-25T09:44:00.347Z,24.00
2019-01-25T09:49:04.656Z,23.00
2019-01-25T09:54:08.796Z,24.00
2019-01-25T09:59:12.864Z,26.50
2019-01-25T10:04:16.956Z,23.00
2019-01-25T10:09:21.210Z,22.75
2019-01-25T10:14:25.335Z,24.80
2019-01-25T10:19:29.555Z,24.60
2019-01-25T10:24:33.840Z,24.50
2019-01-25T10:29:37.957Z,23.00
2019-01-25T10:34:42.106Z,24.75
2019-01-25T10:39:46.171Z,23.75
2019-01-25T10:44:50.274Z,23.00
2019-01-25T10:49:54.502Z,23.80
2019-01-25T10:54:58.565Z,23.00
2019-01-25T11:00:02.912Z,21.80
2019-01-25T11:05:09.277Z,21.00
2019-01-25T11:10:13.650Z,23.80
2019-01-25T11:15:19.902Z,23.00
2019-01-25T11:20:24.558Z,23.00
2019-01-25T11:25:31.522Z,21.00
2019-01-25T11:30:35.996Z,22.00
2019-01-25T11:35:40.198Z,22.00
2019-01-25T11:40:45.045Z,21.60
2019-01-25T11:45:54.261Z,23.00
2019-01-25T11:50:55.123Z,21.20
2019-01-25T11:55:59.215Z,22.40
2019-01-25T12:01:03.869Z,19.00
2019-01-25T12:06:08.248Z,21.50
2019-01-25T12:11:12.471Z,21.00
2019-01-25T12:16:16.505Z,21.50
2019-01-25T12:21:20.866Z,21.00
2019-01-25T12:26:25.003Z,21.00
2019-01-25T12:31:29.208Z,21.00
2019-01-25T12:36:33.270Z,21.00
2019-01-25T12:41:37.431Z,20.40
2019-01-25T12:46:41.616Z,19.00
2019-01-25T12:51:52.831Z,22.00
2019-01-25T12:56:57.019Z,21.00
2019-01-25T13:02:01.224Z,19.60
2019-01-25T13:07:05.807Z,20.50
2019-01-25T13:12:10.081Z,20.50
2019-01-25T13:17:14.716Z,20.40
2019-01-25T13:22:19.038Z,19.60
2019-01-25T13:27:23.261Z,20.00
2019-01-25T13:32:27.302Z,19.75
2019-01-25T13:37:31.612Z,18.20
2019-01-25T13:42:35.872Z,19.75
2019-01-25T13:47:40.068Z,19.25
2019-01-25T13:52:44.216Z,20.60
2019-01-25T13:57:48.448Z,18.75
2019-01-25T14:02:52.663Z,20.00
2019-01-25T14:07:56.991Z,21.00
2019-01-25T14:13:01.528Z,21.00
2019-01-25T14:18:06.522Z,20.80
2019-01-25T14:23:10.952Z,20.75
2019-01-25T14:28:15.143Z,21.25
2019-01-25T14:33:19.202Z,21.00
2019-01-25T14:38:23.357Z,20.50
2019-01-25T14:43:27.410Z,20.40
2019-01-25T14:48:31.528Z,20.60
2019-01-25T14:53:35.553Z,20.50
2019-01-25T14:58:39.762Z,20.60
2019-01-25T15:03:43.853Z,21.00
2019-01-25T15:08:47.896Z,19.00
2019-01-25T15:13:52.148Z,19.50
2019-01-25T15:18:56.255Z,19.00
2019-01-25T15:24:00.404Z,19.25
2019-01-25T15:29:04.635Z,20.75
2019-01-25T15:34:09.127Z,19.00
2019-01-25T15:39:13.647Z,19.00
2019-01-25T15:44:17.972Z,19.00
2019-01-25T15:49:22.282Z,18.25
2019-01-25T15:54:26.547Z,19.20
2019-01-25T15:59:31.166Z,17.75
2019-01-25T16:04:35.413Z,19.00
2019-01-25T16:09:39.732Z,18.75
2019-01-25T16:14:43.956Z,18.00
2019-01-25T16:19:48.708Z,19.20
2019-01-25T16:24:53.350Z,17.00
2019-01-25T16:29:57.784Z,17.80
2019-01-25T16:35:02.019Z,18.25
2019-01-25T16:40:10.160Z,15.60
2019-01-25T16:45:17.985Z,18.25
2019-01-25T16:50:24.157Z,16.60
2019-01-25T16:55:30.187Z,18.75
2019-01-25T17:00:37.820Z,18.50
2019-01-25T17:05:42.972Z,20.00
2019-01-25T17:10:47.183Z,21.00
2019-01-25T17:15:51.284Z,21.00
2019-01-25T17:20:55.715Z,20.00
2019-01-25T17:26:00.009Z,21.20
2019-01-25T17:31:05.751Z,22.75
2019-01-25T17:36:11.244Z,21.60
2019-01-25T17:41:16.255Z,22.00
2019-01-25T17:46:20.859Z,21.25
2019-01-25T17:51:25.396Z,20.20
2019-01-25T17:56:29.939Z,20.80
2019-01-25T18:01:35.285Z,21.00
2019-01-25T18:06:40.138Z,21.20
2019-01-25T18:11:44.846Z,21.00
2019-01-25T18:16:49.758Z,21.00
2019-01-25T18:21:54.863Z,19.00
2019-01-25T18:27:00.038Z,19.25
2019-01-25T18:32:05.966Z,18.60
2019-01-25T18:37:11.546Z,19.00
2019-01-25T18:42:17.714Z,19.75
2019-01-25T18:47:22.933Z,19.75
2019-01-25T18:52:28.810Z,18.25
2019-01-25T18:57:35.515Z,18.25
2019-01-25T19:02:41.312Z,19.00
2019-01-25T19:07:47.076Z,17.80
2019-01-25T19:12:52.910Z,18.60
2019-01-25T19:17:58.708Z,16.25
2019-01-25T19:23:04.986Z,17.00
2019-01-25T19:28:10.377Z,16.50
2019-01-25T19:33:15.624Z,15.20
2019-01-25T19:38:23.042Z,16.40
2019-01-25T19:43:29.383Z,16.25
2019-01-25T19:48:34.963Z,16.50
2019-01-25T19:53:40.771Z,14.75
2019-01-25T19:58:46.342Z,18.25
2019-01-25T20:03:51.795Z,14.00
2019-01-25T20:08:57.411Z,15.75
2019-01-25T20:14:03.325Z,17.40
2019-01-25T20:19:09.986Z,13.50
2019-01-25T20:24:15.449Z,15.25
2019-01-25T20:29:21.026Z,16.75
2019-01-25T20:34:26.125Z,16.50
2019-01-25T20:39:31.415Z,15.40
2019-01-25T20:44:37.288Z,14.00
2019-01-25T20:49:42.811Z,14.60
2019-01-25T20:54:48.556Z,14.00
2019-01-25T20:59:53.709Z,15.50
2019-01-25T21:04:59.970Z,13.50
2019-01-25T21:10:07.361Z,15.20
2019-01-25T21:15:14.562Z,12.50
2019-01-25T21:20:34.689Z,14.20
2019-01-25T21:25:40.660Z,13.20
2019-01-25T21:30:45.831Z,15.25
2019-01-25T21:35:50.937Z,13.20
2019-01-25T21:40:56.715Z,13.20
2019-01-25T21:46:02.585Z,13.50
2019-01-25T21:51:08.611Z,13.00
2019-01-25T21:56:13.537Z,12.50
2019-01-25T22:01:20.851Z,13.00
2019-01-25T22:06:25.282Z,12.50
2019-01-25T22:11:29.790Z,12.20
2019-01-25T22:16:34.770Z,13.20
2019-01-25T22:21:39.280Z,12.50
2019-01-25T22:26:43.755Z,11.00
2019-01-25T22:31:48.246Z,12.00
2019-01-25T22:36:52.601Z,10.40
2019-01-25T22:41:56.999Z,11.25
2019-01-25T22:47:01.148Z,12.00
2019-01-25T22:52:06.253Z,12.20
2019-01-25T22:57:10.515Z,12.50
2019-01-25T23:02:14.891Z,12.25
2019-01-25T23:07:24.930Z,10.25
2019-01-25T23:12:29.192Z,12.75
2019-01-25T23:17:33.442Z,10.00
2019-01-25T23:22:39.343Z,10.40
2019-01-25T23:27:43.616Z,11.25
2019-01-25T23:32:48.015Z,10.80
2019-01-25T23:37:52.272Z,11.00
2019-01-25T23:42:56.578Z,11.40
2019-01-25T23:48:00.868Z,12.00
2019-01-25T23:53:05.193Z,11.00
2019-01-25T23:58:09.362Z,10.00
